Time;durP1;ratioP1;P1;durP2;ratioP2;P2;SDS_P1;SDS_P2;PMS_P1;PMS_P2;Temp;Humidity;BMP_temperature;BMP_pressure;BME280_temperature;BME280_humidity;BME280_pressure;Samples;Min_cycle;Max_cycle;Signal;HPM_P1;HPM_P2
2021/04/29 00:02:17;;;;;;;14.23;8.37;;;12.00;52.70;;;;;;5074861;28;20086;-77
2021/04/29 00:04:42;;;;;;;12.20;7.17;;;12.00;52.60;;;;;;5074816;28;20028;-78
2021/04/29 00:07:08;;;;;;;13.80;7.50;;;11.90;52.70;;;;;;5073371;28;20027;-78
2021/04/29 00:09:35;;;;;;;14.40;7.07;;;11.90;52.70;;;;;;5057028;28;20094;-78
2021/04/29 00:12:01;;;;;;;14.97;8.53;;;11.90;53.40;;;;;;5074869;28;20461;-78
2021/04/29 00:14:27;;;;;;;13.33;7.63;;;11.80;53.50;;;;;;5074542;28;20033;-77
2021/04/29 00:16:53;;;;;;;15.40;7.83;;;11.70;53.80;;;;;;5039123;28;20052;-78
2021/04/29 00:19:18;;;;;;;13.17;7.17;;;11.80;54.00;;;;;;5074477;28;20020;-78
2021/04/29 00:21:44;;;;;;;13.30;7.57;;;11.70;53.70;;;;;;5074473;28;20021;-78
2021/04/29 00:24:10;;;;;;;13.27;6.50;;;11.70;54.60;;;;;;5074255;28;20031;-78
2021/04/29 00:26:35;;;;;;;15.90;8.07;;;11.70;54.70;;;;;;5056569;28;20040;-78
2021/04/29 00:29:01;;;;;;;13.83;7.73;;;11.70;55.30;;;;;;5074359;28;20111;-79
2021/04/29 00:31:29;;;;;;;16.60;8.80;;;11.60;55.20;;;;;;5056202;28;20029;-77
2021/04/29 00:33:56;;;;;;;13.30;7.57;;;11.60;55.60;;;;;;5074047;28;20029;-78
2021/04/29 00:36:22;;;;;;;15.10;8.13;;;11.70;56.00;;;;;;5074086;28;20099;-78
2021/04/29 00:38:47;;;;;;;16.30;7.97;;;11.60;56.00;;;;;;5056340;28;20045;-77
2021/04/29 00:41:13;;;;;;;16.60;8.27;;;11.50;55.60;;;;;;5056382;28;20500;-77
2021/04/29 00:43:39;;;;;;;13.37;7.80;;;11.60;56.00;;;;;;5073972;28;20035;-77
2021/04/29 00:46:04;;;;;;;14.33;8.17;;;11.50;55.60;;;;;;5056525;28;20063;-77
2021/04/29 00:48:31;;;;;;;16.03;8.30;;;11.50;55.50;;;;;;5073967;28;20025;-77
2021/04/29 00:50:56;;;;;;;13.60;7.43;;;11.50;55.60;;;;;;5056068;28;20020;-77
2021/04/29 00:53:33;;;;;;;13.03;7.60;;;11.40;55.20;;;;;;5072651;28;20024;-77
2021/04/29 00:55:59;;;;;;;13.07;7.00;;;11.40;55.50;;;;;;5073887;28;20046;-77
2021/04/29 00:58:24;;;;;;;13.73;7.13;;;11.40;55.30;;;;;;5073628;28;20468;-77
2021/04/29 01:00:50;;;;;;;13.50;7.57;;;11.30;55.10;;;;;;5055819;28;20021;-77
2021/04/29 01:03:32;;;;;;;16.03;8.23;;;11.30;55.20;;;;;;5055718;28;20430;-77
2021/04/29 01:06:06;;;;;;;14.60;7.13;;;11.30;55.30;;;;;;5073508;28;20476;-77
2021/04/29 01:08:55;;;;;;;12.80;7.70;;;11.20;55.50;;;;;;5073929;28;20020;-77
2021/04/29 01:11:24;;;;;;;14.80;8.43;;;11.20;55.50;;;;;;5059998;28;20468;-77
2021/04/29 01:13:56;;;;;;;16.57;9.77;;;11.20;56.30;;;;;;5073301;28;20493;-77
2021/04/29 01:16:23;;;;;;;17.10;9.07;;;11.10;56.40;;;;;;5052390;28;20098;-77
2021/04/29 01:18:52;;;;;;;14.50;8.07;;;11.10;56.90;;;;;;5052471;28;20053;-77
2021/04/29 01:21:18;;;;;;;16.37;8.50;;;11.00;57.00;;;;;;5046563;28;20037;-77
2021/04/29 01:23:56;;;;;;;17.43;8.87;;;10.90;57.10;;;;;;5033101;28;20037;-77
2021/04/29 01:26:33;;;;;;;16.50;9.30;;;10.90;57.60;;;;;;5032839;28;20378;-77
2021/04/29 01:29:05;;;;;;;15.47;9.00;;;10.90;57.70;;;;;;5031706;28;20481;-71
2021/04/29 01:31:36;;;;;;;15.67;8.80;;;10.90;57.90;;;;;;5031940;28;20075;-77
2021/04/29 01:34:04;;;;;;;15.47;9.40;;;10.80;58.10;;;;;;5031967;28;20033;-77
2021/04/29 01:36:31;;;;;;;18.37;9.73;;;10.80;59.10;;;;;;5033097;28;20033;-77
2021/04/29 01:38:58;;;;;;;17.80;9.80;;;10.70;58.50;;;;;;5033203;28;20053;-77
2021/04/29 01:41:24;;;;;;;19.87;9.57;;;10.80;59.00;;;;;;5032131;28;20040;-77
2021/04/29 01:43:50;;;;;;;15.43;9.27;;;10.70;59.70;;;;;;5015508;28;20029;-77
2021/04/29 01:46:17;;;;;;;15.67;9.37;;;10.70;59.50;;;;;;5033241;28;20032;-77
2021/04/29 01:48:43;;;;;;;15.27;9.00;;;10.60;59.40;;;;;;5032977;28;20385;-77
2021/04/29 01:51:09;;;;;;;14.30;8.43;;;10.60;59.50;;;;;;5031694;28;20026;-77
2021/04/29 01:53:35;;;;;;;15.37;9.77;;;10.60;59.60;;;;;;5015393;28;20034;-77
2021/04/29 01:56:01;;;;;;;14.40;8.73;;;10.50;59.30;;;;;;5032848;28;20024;-77
2021/04/29 01:58:27;;;;;;;13.77;9.37;;;10.50;59.20;;;;;;5032883;28;20026;-77
2021/04/29 02:00:53;;;;;;;14.83;8.97;;;10.50;59.00;;;;;;5031666;28;20581;-77
2021/04/29 02:03:19;;;;;;;17.83;9.33;;;10.50;59.40;;;;;;5031539;28;20026;-77
2021/04/29 02:05:45;;;;;;;14.97;8.93;;;10.50;59.70;;;;;;5031571;28;20042;-77
2021/04/29 02:08:10;;;;;;;14.00;8.80;;;10.50;59.80;;;;;;5032852;28;20532;-77
2021/04/29 02:10:36;;;;;;;16.27;8.93;;;10.50;59.60;;;;;;5031491;28;20046;-77
2021/04/29 02:13:06;;;;;;;15.57;8.90;;;10.50;59.40;;;;;;5032807;28;20061;-77
2021/04/29 02:15:40;;;;;;;14.03;9.03;;;10.50;59.60;;;;;;5035457;28;20091;-77
2021/04/29 02:18:10;;;;;;;15.32;9.50;;;10.50;59.80;;;;;;5052624;28;20017;-77
2021/04/29 02:20:39;;;;;;;16.43;8.43;;;10.50;59.60;;;;;;5034832;28;20033;-77
2021/04/29 02:23:13;;;;;;;16.63;8.73;;;10.50;59.70;;;;;;5052546;28;20511;-77
2021/04/29 02:25:42;;;;;;;16.70;8.70;;;10.50;59.70;;;;;;5034657;28;20441;-77
2021/04/29 02:28:08;;;;;;;16.23;9.47;;;10.50;60.00;;;;;;5052504;28;20100;-77
2021/04/29 02:30:34;;;;;;;15.90;9.83;;;10.50;59.90;;;;;;5052505;28;20032;-77
2021/04/29 02:33:01;;;;;;;14.40;9.27;;;10.50;60.00;;;;;;5034745;28;20380;-77
2021/04/29 02:35:28;;;;;;;16.10;9.17;;;10.50;60.40;;;;;;5051092;28;20083;-77
2021/04/29 02:37:54;;;;;;;16.57;10.13;;;10.50;60.70;;;;;;5051053;28;20480;-77
2021/04/29 02:40:21;;;;;;;20.70;9.57;;;10.40;60.80;;;;;;5052327;28;20033;-77
2021/04/29 02:42:48;;;;;;;16.77;10.33;;;10.50;61.10;;;;;;5038241;28;20104;-77
2021/04/29 02:45:16;;;;;;;17.20;10.07;;;10.50;61.40;;;;;;5056009;28;20419;-77
2021/04/29 02:47:48;;;;;;;16.33;9.80;;;10.50;62.00;;;;;;5056237;28;20024;-77
2021/04/29 02:50:17;;;;;;;15.67;10.07;;;10.50;61.40;;;;;;5055896;28;20477;-77
2021/04/29 02:52:44;;;;;;;19.23;10.67;;;10.50;61.30;;;;;;5056007;28;20059;-77
2021/04/29 02:55:11;;;;;;;16.10;10.40;;;10.40;61.20;;;;;;5054514;28;20495;-77
2021/04/29 02:57:37;;;;;;;16.03;10.17;;;10.40;61.10;;;;;;5055667;28;20029;-77
2021/04/29 03:00:13;;;;;;;17.70;10.67;;;10.40;61.20;;;;;;5055660;28;20021;-77
2021/04/29 03:02:39;;;;;;;14.57;9.07;;;10.40;61.30;;;;;;5055506;28;20033;-77
2021/04/29 03:05:10;;;;;;;16.13;10.00;;;10.40;61.10;;;;;;5054492;28;20055;-77
2021/04/29 03:07:38;;;;;;;15.00;10.17;;;10.40;61.40;;;;;;5055557;28;20036;-77
2021/04/29 03:10:05;;;;;;;14.93;9.47;;;10.40;61.40;;;;;;5037686;28;20025;-77
2021/04/29 03:12:31;;;;;;;15.37;9.70;;;10.40;61.50;;;;;;5055585;28;20116;-77
2021/04/29 03:14:57;;;;;;;17.33;9.43;;;10.40;61.80;;;;;;5037692;28;20112;-77
2021/04/29 03:17:22;;;;;;;16.10;10.07;;;10.30;62.20;;;;;;5055080;28;20048;-78
2021/04/29 03:19:48;;;;;;;15.73;10.03;;;10.40;63.50;;;;;;5055272;28;20029;-77
2021/04/29 03:22:14;;;;;;;14.73;9.63;;;10.30;62.50;;;;;;5055319;28;20036;-77
2021/04/29 03:24:40;;;;;;;18.47;10.90;;;10.30;62.70;;;;;;5020903;28;20388;-77
2021/04/29 03:27:06;;;;;;;17.87;10.10;;;10.30;63.00;;;;;;5055348;28;20040;-77
2021/04/29 03:29:32;;;;;;;16.07;9.63;;;10.20;63.10;;;;;;5037401;28;20075;-77
2021/04/29 03:31:57;;;;;;;15.80;10.40;;;10.20;63.20;;;;;;5037780;28;20404;-78
2021/04/29 03:34:23;;;;;;;17.13;10.70;;;10.10;63.10;;;;;;5054956;28;20306;-77
2021/04/29 03:36:49;;;;;;;17.23;10.77;;;10.20;63.30;;;;;;5055089;28;20112;-77
2021/04/29 03:39:14;;;;;;;16.47;10.30;;;10.20;63.50;;;;;;5037086;28;20040;-78
2021/04/29 03:41:40;;;;;;;16.77;10.03;;;10.20;64.00;;;;;;5053772;28;20057;-78
2021/04/29 03:44:06;;;;;;;15.57;10.33;;;10.10;63.90;;;;;;5054910;28;20124;-77
2021/04/29 03:46:31;;;;;;;17.30;11.07;;;10.20;64.50;;;;;;5037122;28;20131;-77
2021/04/29 03:48:57;;;;;;;14.67;9.50;;;10.10;64.90;;;;;;5054793;28;20037;-78
2021/04/29 03:51:23;;;;;;;17.27;10.90;;;10.10;64.70;;;;;;5054725;28;20112;-77
2021/04/29 03:53:49;;;;;;;18.90;10.87;;;10.00;64.60;;;;;;5036871;28;20083;-77
2021/04/29 03:56:14;;;;;;;17.93;10.57;;;10.00;64.90;;;;;;5053525;28;20033;-78
2021/04/29 03:58:40;;;;;;;14.13;9.80;;;10.00;65.20;;;;;;5053560;28;20041;-77
2021/04/29 04:01:05;;;;;;;22.87;11.47;;;10.00;65.20;;;;;;5061076;28;20377;-77
2021/04/29 04:03:31;;;;;;;18.57;11.03;;;9.90;66.00;;;;;;5072967;28;20036;-77
2021/04/29 04:05:57;;;;;;;21.53;11.80;;;9.90;66.10;;;;;;5073355;28;20111;-77
2021/04/29 04:08:22;;;;;;;17.37;11.17;;;9.90;66.80;;;;;;5074480;28;20033;-78
2021/04/29 04:10:48;;;;;;;15.30;10.93;;;9.90;67.90;;;;;;5056550;28;20115;-77
2021/04/29 04:13:18;;;;;;;18.40;11.53;;;9.90;67.80;;;;;;5056581;28;20554;-77
2021/04/29 04:15:44;;;;;;;17.20;11.37;;;9.80;68.50;;;;;;5055432;28;20035;-77
2021/04/29 04:18:10;;;;;;;18.13;10.97;;;9.80;68.60;;;;;;5074054;28;20048;-77
2021/04/29 04:20:36;;;;;;;16.77;10.47;;;9.80;68.40;;;;;;5074291;28;20032;-77
2021/04/29 04:23:01;;;;;;;19.50;10.63;;;9.80;69.50;;;;;;5039656;28;20035;-77
2021/04/29 04:25:27;;;;;;;20.27;12.37;;;9.80;69.10;;;;;;5074150;28;20110;-77
2021/04/29 04:27:52;;;;;;;17.00;11.63;;;9.80;71.20;;;;;;5056196;28;20590;-78
2021/04/29 04:30:18;;;;;;;20.47;12.77;;;9.80;71.90;;;;;;5074073;28;20108;-77
2021/04/29 04:32:44;;;;;;;21.17;12.83;;;9.80;71.70;;;;;;5038449;28;20036;-77
2021/04/29 04:35:10;;;;;;;23.73;13.87;;;9.70;71.90;;;;;;5067677;28;20045;-77
2021/04/29 04:37:36;;;;;;;17.93;11.93;;;9.70;72.90;;;;;;5054290;28;20384;-77
2021/04/29 04:40:02;;;;;;;19.37;12.27;;;9.60;72.30;;;;;;5018882;28;20040;-77
2021/04/29 04:42:28;;;;;;;22.27;13.73;;;9.50;72.70;;;;;;5049884;28;20074;-77
2021/04/29 04:44:54;;;;;;;22.37;14.60;;;9.50;73.60;;;;;;5073524;28;20072;-78
2021/04/29 04:47:19;;;;;;;23.60;14.10;;;9.50;74.30;;;;;;5070775;28;20028;-77
2021/04/29 04:49:45;;;;;;;21.80;15.00;;;9.40;74.70;;;;;;5070773;28;20472;-77
2021/04/29 04:52:11;;;;;;;22.40;15.53;;;9.30;74.90;;;;;;5038812;28;20037;-78
2021/04/29 04:54:36;;;;;;;25.07;15.00;;;9.20;75.60;;;;;;5054447;28;20068;-77
2021/04/29 04:57:02;;;;;;;24.23;14.50;;;9.20;74.90;;;;;;5054441;28;20030;-77
2021/04/29 04:59:28;;;;;;;21.57;14.13;;;9.20;75.10;;;;;;5055548;28;20082;-77
2021/04/29 05:01:54;;;;;;;22.40;15.30;;;9.20;75.30;;;;;;5039004;28;20028;-77
2021/04/29 05:04:21;;;;;;;24.40;16.30;;;9.10;75.70;;;;;;5053072;28;20028;-77
2021/04/29 05:06:46;;;;;;;23.10;15.63;;;9.20;76.30;;;;;;5055023;28;20123;-77
2021/04/29 05:09:12;;;;;;;26.17;15.03;;;9.10;76.20;;;;;;5072689;28;20064;-78
2021/04/29 05:11:38;;;;;;;25.23;15.90;;;9.10;77.00;;;;;;5055148;28;20153;-77
2021/04/29 05:14:03;;;;;;;25.37;16.00;;;9.10;77.10;;;;;;5053396;28;20029;-77
2021/04/29 05:16:29;;;;;;;23.20;15.87;;;9.10;77.00;;;;;;5054175;28;20464;-77
2021/04/29 05:18:55;;;;;;;25.03;16.23;;;9.10;76.50;;;;;;5077990;28;20063;-77
2021/04/29 05:21:20;;;;;;;21.97;15.73;;;9.00;76.90;;;;;;5072565;28;20028;-77
2021/04/29 05:23:46;;;;;;;22.97;16.37;;;9.10;77.30;;;;;;5083059;28;20025;-77
2021/04/29 05:26:13;;;;;;;25.47;15.13;;;9.10;77.20;;;;;;5053484;28;20074;-77
2021/04/29 05:28:39;;;;;;;22.37;15.27;;;9.20;77.30;;;;;;5041409;28;20036;-77
2021/04/29 05:31:04;;;;;;;25.33;15.47;;;9.20;77.30;;;;;;5056018;28;20024;-77
2021/04/29 05:33:30;;;;;;;23.90;15.27;;;9.20;77.20;;;;;;5039188;28;20031;-77
2021/04/29 05:35:55;;;;;;;24.30;15.37;;;9.30;77.40;;;;;;5055343;28;20032;-77
2021/04/29 05:38:21;;;;;;;30.93;16.60;;;9.40;77.90;;;;;;5038640;28;20029;-77
2021/04/29 05:40:47;;;;;;;35.67;16.83;;;9.30;78.20;;;;;;5055836;28;20391;-78
2021/04/29 05:43:12;;;;;;;24.73;16.63;;;9.40;78.10;;;;;;5055364;28;20032;-76
2021/04/29 05:45:38;;;;;;;23.67;16.80;;;9.40;78.10;;;;;;5055236;28;20458;-78
2021/04/29 05:48:04;;;;;;;22.80;15.53;;;9.40;78.20;;;;;;5073237;28;20056;-79
2021/04/29 05:50:30;;;;;;;27.20;17.67;;;9.30;78.40;;;;;;5054973;28;20042;-77
2021/04/29 05:52:56;;;;;;;28.20;18.40;;;9.40;78.80;;;;;;5072999;28;20082;-77
2021/04/29 05:55:22;;;;;;;27.83;18.50;;;9.40;79.20;;;;;;5077934;28;20024;-77
2021/04/29 05:57:47;;;;;;;28.07;18.30;;;9.40;79.60;;;;;;5065272;28;20016;-77
2021/04/29 06:00:13;;;;;;;25.00;17.10;;;9.50;79.70;;;;;;5093500;28;20035;-77
2021/04/29 06:02:39;;;;;;;24.57;16.60;;;9.50;79.40;;;;;;5075468;28;20048;-78
2021/04/29 06:05:05;;;;;;;24.23;17.27;;;9.50;79.60;;;;;;5059758;28;20025;-76
2021/04/29 06:07:31;;;;;;;25.33;15.80;;;9.50;79.50;;;;;;5038521;28;20159;-76
2021/04/29 06:09:56;;;;;;;26.73;17.00;;;9.50;79.30;;;;;;5054978;28;20085;-77
2021/04/29 06:12:22;;;;;;;25.43;17.37;;;9.60;79.60;;;;;;5055524;28;20089;-77
2021/04/29 06:14:48;;;;;;;25.43;16.33;;;9.70;79.30;;;;;;5073134;28;20037;-77
2021/04/29 06:17:13;;;;;;;22.83;16.00;;;9.70;79.60;;;;;;5076789;28;20047;-77
2021/04/29 06:19:39;;;;;;;24.40;16.50;;;9.80;79.50;;;;;;5058984;28;20074;-77
2021/04/29 06:22:04;;;;;;;25.00;17.63;;;9.80;79.10;;;;;;5076833;28;20052;-77
2021/04/29 06:24:33;;;;;;;25.60;17.73;;;9.80;79.60;;;;;;5076858;28;20037;-78
2021/04/29 06:26:59;;;;;;;23.73;16.20;;;9.80;79.70;;;;;;5076655;28;20616;-77
2021/04/29 06:29:25;;;;;;;23.47;16.73;;;9.90;79.80;;;;;;5076679;28;20042;-78
2021/04/29 06:31:50;;;;;;;24.93;17.97;;;10.00;79.70;;;;;;5058824;28;20506;-77
2021/04/29 06:34:16;;;;;;;23.40;16.73;;;10.10;79.80;;;;;;5058560;28;20021;-77
2021/04/29 06:36:42;;;;;;;21.33;15.23;;;10.20;79.90;;;;;;5076449;28;20048;-77
2021/04/29 06:39:07;;;;;;;23.73;15.70;;;10.10;79.70;;;;;;5041808;28;20348;-77
2021/04/29 06:41:33;;;;;;;25.73;17.57;;;10.20;80.10;;;;;;5076529;28;20032;-78
2021/04/29 06:43:59;;;;;;;23.07;15.73;;;10.40;80.50;;;;;;5058166;28;20120;-78
2021/04/29 06:46:25;;;;;;;23.73;16.20;;;10.40;80.40;;;;;;5076217;28;20032;-77
2021/04/29 06:48:50;;;;;;;19.93;14.97;;;10.40;80.20;;;;;;5058289;28;20032;-78
2021/04/29 06:51:16;;;;;;;24.50;17.87;;;10.50;80.20;;;;;;5076325;28;20084;-77
2021/04/29 06:53:42;;;;;;;22.50;15.90;;;10.50;80.80;;;;;;5076099;28;20020;-77
2021/04/29 06:56:07;;;;;;;24.70;17.07;;;10.50;80.30;;;;;;5075823;28;20031;-76
2021/04/29 06:58:34;;;;;;;25.37;18.17;;;10.50;80.70;;;;;;5083653;28;20039;-77
2021/04/29 07:01:00;;;;;;;28.67;18.07;;;10.60;80.50;;;;;;5096327;28;20096;-76
2021/04/29 07:03:26;;;;;;;22.53;17.00;;;10.70;80.80;;;;;;5061768;28;20032;-77
2021/04/29 07:05:52;;;;;;;24.93;17.27;;;10.70;80.40;;;;;;5096034;28;20108;-77
2021/04/29 07:08:18;;;;;;;25.30;16.13;;;10.70;80.40;;;;;;5096645;28;20052;-72
2021/04/29 07:10:44;;;;;;;22.30;16.93;;;10.70;80.10;;;;;;5096416;28;20020;-73
2021/04/29 07:13:10;;;;;;;23.07;16.97;;;10.80;79.90;;;;;;5078500;28;20023;-72
2021/04/29 07:15:36;;;;;;;25.23;16.13;;;10.80;79.60;;;;;;5077942;28;20032;-72
2021/04/29 07:18:04;;;;;;;23.23;16.47;;;10.80;79.50;;;;;;5095793;28;20032;-72
2021/04/29 07:20:33;;;;;;;25.63;16.97;;;10.80;80.00;;;;;;5077845;28;20020;-73
2021/04/29 07:22:59;;;;;;;26.90;17.13;;;10.70;79.90;;;;;;5077744;28;20103;-72
2021/04/29 07:25:24;;;;;;;22.77;16.67;;;10.80;79.90;;;;;;5077600;28;20055;-72
2021/04/29 07:27:51;;;;;;;27.83;17.00;;;10.70;79.60;;;;;;5095458;28;20028;-72
2021/04/29 07:30:17;;;;;;;23.73;16.97;;;10.70;79.70;;;;;;5059687;28;20424;-71
2021/04/29 07:32:43;;;;;;;22.93;16.30;;;10.60;79.50;;;;;;5032300;28;20029;-72
2021/04/29 07:35:09;;;;;;;24.53;15.97;;;10.70;79.80;;;;;;5054916;28;20060;-73
2021/04/29 07:37:35;;;;;;;22.80;17.23;;;10.70;79.90;;;;;;5055009;28;20033;-77
2021/04/29 07:40:00;;;;;;;25.90;18.53;;;10.70;80.10;;;;;;5037538;28;20388;-77
2021/04/29 07:42:26;;;;;;;21.80;16.57;;;10.70;80.30;;;;;;5037382;28;20033;-77
2021/04/29 07:44:51;;;;;;;21.70;15.63;;;10.70;80.00;;;;;;5055140;28;20139;-77
2021/04/29 07:47:17;;;;;;;25.27;15.87;;;10.80;79.90;;;;;;5055316;28;20055;-76
2021/04/29 07:49:43;;;;;;;22.63;16.70;;;10.80;79.70;;;;;;5037385;28;20017;-77
2021/04/29 07:52:08;;;;;;;22.27;15.87;;;10.80;79.60;;;;;;5037195;28;20032;-77
2021/04/29 07:54:35;;;;;;;23.73;14.77;;;10.80;79.60;;;;;;5054980;28;20037;-77
2021/04/29 07:57:01;;;;;;;22.53;15.40;;;10.90;79.70;;;;;;5036867;28;20029;-77
2021/04/29 07:59:29;;;;;;;19.67;14.97;;;10.80;79.60;;;;;;5055030;28;20040;-77
2021/04/29 08:01:56;;;;;;;23.27;16.97;;;10.80;79.80;;;;;;5088839;28;20026;-77
2021/04/29 08:04:21;;;;;;;24.97;16.63;;;10.80;79.60;;;;;;5076895;28;20028;-77
2021/04/29 08:06:47;;;;;;;23.70;15.33;;;10.80;79.50;;;;;;5094975;28;20035;-77
2021/04/29 08:09:12;;;;;;;22.10;16.23;;;10.80;79.50;;;;;;5077193;28;20537;-76
2021/04/29 08:11:38;;;;;;;21.13;15.57;;;10.80;79.50;;;;;;5076881;28;20056;-76
2021/04/29 08:14:04;;;;;;;21.67;15.13;;;10.80;79.50;;;;;;5060151;28;20031;-76
2021/04/29 08:16:30;;;;;;;24.47;17.20;;;10.90;79.50;;;;;;5095388;28;20039;-76
2021/04/29 08:18:56;;;;;;;22.20;16.37;;;10.80;79.50;;;;;;5094729;28;20040;-76
2021/04/29 08:21:21;;;;;;;23.03;17.40;;;10.70;79.40;;;;;;5076692;28;20012;-76
2021/04/29 08:23:47;;;;;;;26.37;17.90;;;10.80;79.90;;;;;;5085764;28;20029;-76
2021/04/29 08:26:12;;;;;;;24.07;16.67;;;10.80;79.40;;;;;;5040257;28;20028;-77
2021/04/29 08:28:38;;;;;;;23.63;16.70;;;10.90;79.60;;;;;;5074625;28;20109;-77
2021/04/29 08:31:04;;;;;;;22.17;16.23;;;11.00;79.50;;;;;;5074345;28;20038;-76
2021/04/29 08:33:30;;;;;;;22.47;15.47;;;11.00;79.30;;;;;;5074304;28;20021;-76
2021/04/29 08:35:56;;;;;;;22.17;15.97;;;11.00;79.40;;;;;;5056601;28;20024;-77
2021/04/29 08:38:21;;;;;;;19.77;14.37;;;11.00;79.10;;;;;;5073439;28;20021;-76
2021/04/29 08:40:47;;;;;;;22.13;14.63;;;11.00;79.00;;;;;;5056409;28;20032;-76
2021/04/29 08:43:13;;;;;;;21.13;14.27;;;11.00;79.10;;;;;;5040134;28;20025;-76
2021/04/29 08:45:44;;;;;;;21.47;15.43;;;11.00;78.90;;;;;;5074239;28;20410;-76
2021/04/29 08:48:11;;;;;;;21.07;15.13;;;11.00;79.20;;;;;;5056309;28;20487;-76
2021/04/29 08:50:37;;;;;;;19.73;15.27;;;11.00;79.10;;;;;;5074279;28;20036;-76
2021/04/29 08:53:03;;;;;;;19.97;14.77;;;11.00;79.00;;;;;;5056311;28;20392;-76
2021/04/29 08:55:29;;;;;;;26.60;17.10;;;11.00;79.10;;;;;;5073901;28;20025;-77
2021/04/29 08:57:55;;;;;;;24.80;16.33;;;11.00;79.60;;;;;;5055700;28;20060;-77
2021/04/29 09:00:22;;;;;;;28.37;19.13;;;11.00;79.70;;;;;;5055887;28;20029;-78
2021/04/29 09:02:48;;;;;;;25.77;17.10;;;11.10;80.10;;;;;;5055484;28;20012;-77
2021/04/29 09:05:21;;;;;;;24.83;17.03;;;11.10;80.00;;;;;;5073846;28;20029;-77
2021/04/29 09:08:05;;;;;;;22.57;17.37;;;11.10;80.00;;;;;;5073747;28;20141;-78
2021/04/29 09:10:37;;;;;;;25.52;18.00;;;11.10;80.10;;;;;;5073540;28;20430;-77
2021/04/29 09:13:32;;;;;;;22.70;16.37;;;11.10;80.20;;;;;;5055366;28;20361;-78
2021/04/29 09:16:05;;;;;;;23.37;17.57;;;11.20;80.20;;;;;;5042682;28;20068;-77
2021/04/29 09:18:31;;;;;;;25.20;16.92;;;11.20;79.90;;;;;;5055418;28;20041;-77
2021/04/29 09:21:06;;;;;;;22.80;15.77;;;11.30;79.90;;;;;;5055913;28;20570;-78
2021/04/29 09:23:35;;;;;;;19.40;14.43;;;11.30;79.60;;;;;;5055415;28;20545;-77
2021/04/29 09:26:12;;;;;;;20.37;15.13;;;11.20;80.20;;;;;;5073371;28;20418;-77
2021/04/29 09:28:51;;;;;;;22.73;15.70;;;11.20;79.70;;;;;;5073182;28;20016;-77
2021/04/29 09:31:22;;;;;;;23.97;16.83;;;11.10;79.70;;;;;;5073010;28;20074;-77
2021/04/29 09:34:00;;;;;;;20.87;15.10;;;11.10;79.60;;;;;;5073500;28;20091;-77
2021/04/29 09:36:27;;;;;;;26.50;16.30;;;11.00;79.80;;;;;;5073578;28;20024;-77
2021/04/29 09:38:52;;;;;;;22.53;16.90;;;10.90;79.70;;;;;;5073226;28;20024;-77
2021/04/29 09:41:25;;;;;;;24.70;17.20;;;10.90;80.10;;;;;;5055883;28;20024;-77
2021/04/29 09:43:59;;;;;;;23.47;17.07;;;10.80;79.90;;;;;;5055236;28;20031;-77
2021/04/29 09:46:25;;;;;;;26.10;19.43;;;10.80;80.00;;;;;;5073320;28;20457;-77
2021/04/29 09:48:51;;;;;;;25.33;18.00;;;10.80;80.50;;;;;;5055649;28;20021;-77
2021/04/29 09:51:19;;;;;;;22.20;16.40;;;10.70;80.40;;;;;;5077400;28;20094;-77
2021/04/29 09:53:49;;;;;;;24.13;17.10;;;10.80;80.70;;;;;;5059768;28;20428;-77
2021/04/29 09:56:15;;;;;;;22.47;17.93;;;10.90;80.90;;;;;;5059315;28;20062;-77
2021/04/29 09:58:55;;;;;;;22.87;16.80;;;10.70;81.10;;;;;;5059233;28;20021;-78
2021/04/29 10:01:21;;;;;;;24.53;17.33;;;10.80;81.20;;;;;;5063756;28;20422;-77
2021/04/29 10:03:47;;;;;;;20.80;16.33;;;10.70;81.20;;;;;;5086326;28;20483;-77
2021/04/29 10:06:15;;;;;;;23.03;16.60;;;10.70;80.90;;;;;;5062237;28;20035;-77
2021/04/29 10:08:41;;;;;;;26.30;18.13;;;10.60;81.20;;;;;;5094690;28;20028;-77
2021/04/29 10:11:09;;;;;;;27.43;19.53;;;10.60;81.20;;;;;;5079359;28;20027;-77
2021/04/29 10:13:38;;;;;;;25.17;17.87;;;10.50;81.80;;;;;;5092688;28;20052;-77
2021/04/29 10:16:04;;;;;;;25.27;17.87;;;10.50;82.20;;;;;;5076764;28;20476;-78
2021/04/29 10:18:30;;;;;;;27.67;18.63;;;10.40;82.50;;;;;;5058909;28;20086;-77
2021/04/29 10:21:01;;;;;;;25.33;17.17;;;10.40;83.00;;;;;;5058826;28;20020;-77
2021/04/29 10:23:27;;;;;;;24.03;17.60;;;10.30;82.80;;;;;;5058840;28;20021;-77
2021/04/29 10:25:55;;;;;;;23.53;17.97;;;10.40;83.20;;;;;;5076990;28;20032;-78
2021/04/29 10:28:41;;;;;;;20.53;15.50;;;10.40;83.70;;;;;;5058717;28;20029;-78
2021/04/29 10:31:19;;;;;;;24.43;17.40;;;10.30;83.50;;;;;;5057591;28;20039;-78
2021/04/29 10:33:54;;;;;;;26.03;19.13;;;10.30;84.00;;;;;;5072492;28;20027;-77
2021/04/29 10:36:21;;;;;;;24.97;17.80;;;10.30;84.50;;;;;;5077569;28;20033;-77
2021/04/29 10:38:47;;;;;;;28.07;19.43;;;10.20;85.00;;;;;;5076487;28;20469;-77
2021/04/29 10:41:24;;;;;;;24.03;17.30;;;10.20;85.20;;;;;;5076352;28;20028;-78
2021/04/29 10:43:52;;;;;;;28.13;18.53;;;10.20;85.70;;;;;;5076320;28;20040;-77
2021/04/29 10:46:30;;;;;;;27.10;17.60;;;10.20;85.80;;;;;;5076445;28;20033;-78
2021/04/29 10:48:57;;;;;;;26.00;17.43;;;10.20;86.00;;;;;;5058732;28;20021;-78
2021/04/29 10:51:36;;;;;;;24.10;18.13;;;10.30;86.20;;;;;;5076321;28;20141;-78
2021/04/29 10:54:16;;;;;;;22.90;17.80;;;10.30;86.80;;;;;;5076264;28;20358;-78
2021/04/29 10:56:58;;;;;;;27.17;17.97;;;10.20;87.30;;;;;;5091129;28;20023;-79
2021/04/29 10:59:35;;;;;;;22.03;16.00;;;10.20;87.90;;;;;;5078149;28;20020;-78
2021/04/29 11:02:01;;;;;;;23.63;15.13;;;10.20;88.10;;;;;;5079142;28;20032;-79
2021/04/29 11:04:26;;;;;;;20.87;15.13;;;10.10;88.30;;;;;;5078193;28;20088;-80
2021/04/29 11:06:52;;;;;;;24.27;18.37;;;10.20;89.30;;;;;;5096184;28;20107;-80
2021/04/29 11:09:19;;;;;;;21.13;16.17;;;10.10;89.30;;;;;;5096387;28;20386;-78
2021/04/29 11:11:45;;;;;;;25.10;15.97;;;10.10;89.50;;;;;;5082816;28;20040;-82
2021/04/29 11:14:12;;;;;;;17.77;13.40;;;10.10;89.90;;;;;;5076228;28;21610;-79
2021/04/29 11:16:58;;;;;;;18.77;11.93;;;10.10;89.70;;;;;;5057880;28;20032;-82
2021/04/29 11:19:57;;;;;;;19.43;13.33;;;10.10;89.50;;;;;;5062405;28;20035;-79
2021/04/29 11:22:33;;;;;;;19.93;13.07;;;10.00;89.50;;;;;;5067678;28;20024;-79
2021/04/29 11:24:59;;;;;;;17.33;13.17;;;10.00;89.60;;;;;;5080965;28;20407;-80
2021/04/29 11:27:26;;;;;;;18.30;13.80;;;9.90;90.00;;;;;;5065245;28;20070;-80
2021/04/29 11:30:09;;;;;;;18.63;14.23;;;9.90;90.00;;;;;;5065301;28;20150;-80
2021/04/29 11:32:37;;;;;;;18.17;14.63;;;9.80;89.90;;;;;;5075718;28;20428;-82
2021/04/29 11:35:21;;;;;;;19.00;14.30;;;9.80;90.00;;;;;;5075600;28;20060;-80
2021/04/29 11:37:47;;;;;;;21.88;15.77;;;9.70;89.90;;;;;;5075472;28;20031;-79
2021/04/29 11:40:13;;;;;;;21.33;14.93;;;9.70;89.90;;;;;;5057528;28;20021;-78
2021/04/29 11:42:42;;;;;;;20.00;14.37;;;9.60;89.70;;;;;;5055778;28;20380;-80
2021/04/29 11:45:16;;;;;;;17.77;13.57;;;9.60;89.50;;;;;;5074936;28;20024;-81
2021/04/29 11:48:13;;;;;;;18.50;13.33;;;9.70;89.50;;;;;;5075061;28;20060;-79
2021/04/29 11:50:48;;;;;;;18.13;13.97;;;9.70;89.40;;;;;;5044554;28;20036;-79
2021/04/29 11:53:39;;;;;;;20.37;14.40;;;9.70;89.30;;;;;;5075231;28;20021;-80
2021/04/29 11:56:05;;;;;;;18.80;14.53;;;9.70;89.30;;;;;;5071123;28;20047;-79
2021/04/29 11:58:32;;;;;;;18.87;14.03;;;9.60;88.60;;;;;;5057495;28;20025;-78
2021/04/29 12:00:58;;;;;;;17.73;13.00;;;9.60;88.50;;;;;;5074903;28;20095;-80
2021/04/29 12:03:26;;;;;;;19.40;13.87;;;9.60;88.00;;;;;;5057043;28;20120;-79
2021/04/29 12:05:54;;;;;;;20.33;13.10;;;9.60;88.10;;;;;;5074862;28;20503;-73
2021/04/29 12:08:32;;;;;;;19.53;13.20;;;9.50;87.40;;;;;;5056800;28;20031;-74
2021/04/29 12:11:00;;;;;;;20.73;13.27;;;9.50;87.40;;;;;;5056411;28;20364;-74
2021/04/29 12:13:30;;;;;;;16.33;11.80;;;9.40;87.70;;;;;;5074594;28;20016;-73
2021/04/29 12:15:58;;;;;;;17.50;12.87;;;9.40;87.80;;;;;;5074638;28;20032;-73
2021/04/29 12:18:24;;;;;;;19.43;13.00;;;9.40;87.90;;;;;;5074527;28;20040;-73
2021/04/29 12:20:50;;;;;;;21.53;14.20;;;9.30;88.10;;;;;;5040173;28;20016;-79
2021/04/29 12:23:16;;;;;;;20.50;13.43;;;9.30;88.90;;;;;;5023878;28;20039;-81
2021/04/29 12:25:42;;;;;;;19.73;11.97;;;9.20;89.30;;;;;;5056588;28;20099;-79
2021/04/29 12:28:18;;;;;;;18.00;12.90;;;9.10;88.70;;;;;;5074373;28;20059;-77
2021/04/29 12:30:45;;;;;;;19.83;14.23;;;9.00;88.60;;;;;;5056169;28;20036;-80
2021/04/29 12:33:20;;;;;;;17.80;13.10;;;8.90;89.00;;;;;;5056135;28;20380;-76
2021/04/29 12:35:46;;;;;;;22.67;13.33;;;8.80;88.80;;;;;;5055419;28;20036;-81
2021/04/29 12:38:13;;;;;;;20.83;14.43;;;8.80;88.90;;;;;;5074204;28;20020;-81